createdAt,value
2018-09-22T00:00:46.931Z,69.50
2018-09-22T00:03:17.138Z,69.70
2018-09-22T00:05:46.661Z,70.10
2018-09-22T00:08:17.067Z,70.30
2018-09-22T00:10:47.257Z,70.40
2018-09-22T00:13:17.681Z,70.50
2018-09-22T00:15:48.529Z,70.70
2018-09-22T00:18:18.266Z,70.50
2018-09-22T00:20:48.085Z,70.50
2018-09-22T00:23:18.177Z,70.70
2018-09-22T00:25:48.320Z,70.70
2018-09-22T00:28:19.404Z,70.70
2018-09-22T00:30:49.534Z,70.60
2018-09-22T00:33:19.854Z,70.80
2018-09-22T00:35:51.100Z,70.90
2018-09-22T00:38:20.968Z,70.90
2018-09-22T00:40:52.662Z,70.80
2018-09-22T00:43:24.605Z,70.80
2018-09-22T00:45:55.033Z,71.00
2018-09-22T00:48:26.825Z,71.00
2018-09-22T00:50:58.233Z,71.20
2018-09-22T00:53:28.438Z,71.20
2018-09-22T00:55:59.235Z,71.10
2018-09-22T00:58:28.756Z,71.20
2018-09-22T01:00:59.283Z,71.90
2018-09-22T01:03:28.817Z,71.10
2018-09-22T01:05:59.174Z,71.10
2018-09-22T01:08:28.571Z,71.10
2018-09-22T01:10:59.244Z,71.20
2018-09-22T01:13:29.457Z,71.20
2018-09-22T01:15:58.961Z,71.20
2018-09-22T01:18:30.014Z,71.30
2018-09-22T01:21:00.677Z,71.40
2018-09-22T01:23:30.941Z,71.50
2018-09-22T01:26:00.757Z,71.60
2018-09-22T01:28:30.224Z,71.80
2018-09-22T01:30:59.641Z,71.70
2018-09-22T01:33:30.066Z,71.80
2018-09-22T01:35:59.528Z,71.80
2018-09-22T01:38:29.668Z,72.10
2018-09-22T01:41:01.607Z,72.20
2018-09-22T01:43:33.471Z,72.20
2018-09-22T01:46:04.187Z,72.40
2018-09-22T01:48:34.358Z,72.40
2018-09-22T01:51:06.423Z,72.60
2018-09-22T01:53:36.236Z,72.60
2018-09-22T01:56:06.794Z,72.60
2018-09-22T01:58:37.638Z,72.70
2018-09-22T02:01:07.818Z,72.90
2018-09-22T02:03:37.942Z,73.00
2018-09-22T02:06:08.226Z,73.30
2018-09-22T02:08:37.754Z,73.40
2018-09-22T02:11:08.673Z,73.60
2018-09-22T02:13:38.598Z,73.80
2018-09-22T02:16:08.116Z,74.10
2018-09-22T02:18:37.629Z,74.40
2018-09-22T02:21:07.831Z,74.60
2018-09-22T02:23:37.290Z,74.70
2018-09-22T02:26:06.758Z,74.60
2018-09-22T02:28:37.595Z,75.20
2018-09-22T02:31:09.518Z,75.50
2018-09-22T02:33:42.531Z,75.70
2018-09-22T02:36:14.084Z,75.90
2018-09-22T02:38:43.677Z,76.00
2018-09-22T02:41:14.147Z,76.20
2018-09-22T02:43:43.600Z,76.40
2018-09-22T02:46:13.049Z,76.60
2018-09-22T02:48:47.340Z,76.70
2018-09-22T02:51:18.192Z,77.00
2018-09-22T02:53:48.085Z,77.20
2018-09-22T02:56:19.471Z,77.20
2018-09-22T02:58:49.246Z,77.40
2018-09-22T03:01:18.918Z,77.40
2018-09-22T03:03:48.761Z,77.50
2018-09-22T03:06:18.302Z,77.60
2018-09-22T03:08:47.841Z,77.60
2018-09-22T03:11:17.303Z,77.60
2018-09-22T03:13:47.761Z,77.70
2018-09-22T03:16:17.986Z,77.70
2018-09-22T03:18:47.856Z,77.80
2018-09-22T03:21:17.909Z,77.90
2018-09-22T03:23:47.652Z,78.00
2018-09-22T03:26:17.612Z,78.10
2018-09-22T03:28:49.015Z,78.10
2018-09-22T03:31:18.947Z,78.20
2018-09-22T03:33:48.420Z,78.30
2018-09-22T03:36:20.960Z,78.30
2018-09-22T03:38:52.504Z,78.40
2018-09-22T03:41:23.097Z,78.50
2018-09-22T03:43:52.738Z,78.40
2018-09-22T03:46:22.475Z,78.30
2018-09-22T03:48:52.484Z,78.30
2018-09-22T03:51:22.425Z,78.20
2018-09-22T03:53:51.940Z,78.30
2018-09-22T03:56:21.972Z,78.10
2018-09-22T03:58:51.583Z,78.10
2018-09-22T04:01:21.211Z,78.20
2018-09-22T04:03:50.919Z,78.10
2018-09-22T04:06:20.685Z,78.20
2018-09-22T04:08:50.915Z,78.30
2018-09-22T04:11:21.864Z,78.30
2018-09-22T04:13:51.936Z,78.30
2018-09-22T04:16:22.205Z,78.40
2018-09-22T04:18:52.773Z,78.30
2018-09-22T04:21:22.365Z,77.90
2018-09-22T04:23:52.504Z,78.30
2018-09-22T04:26:22.087Z,78.40
2018-09-22T04:28:55.304Z,78.60
2018-09-22T04:31:26.196Z,78.50
2018-09-22T04:33:56.682Z,78.50
2018-09-22T04:36:27.077Z,78.70
2018-09-22T04:38:58.927Z,78.70
2018-09-22T04:41:28.584Z,78.80
2018-09-22T04:44:01.618Z,79.00
2018-09-22T04:46:31.828Z,78.50
2018-09-22T04:51:33.351Z,78.00
2018-09-22T04:54:03.983Z,78.20
2018-09-22T04:59:03.508Z,78.30
2018-09-22T05:01:33.935Z,78.50
2018-09-22T05:04:04.921Z,78.50
2018-09-22T05:09:05.604Z,79.40
2018-09-22T05:11:36.192Z,78.50
2018-09-22T05:14:06.610Z,78.60
2018-09-22T05:19:05.078Z,78.90
2018-09-22T05:21:35.385Z,78.80
2018-09-22T05:24:05.767Z,78.70
2018-09-22T05:26:36.353Z,78.60
2018-09-22T05:29:06.907Z,78.60
2018-09-22T05:31:36.410Z,78.50
2018-09-22T05:34:06.666Z,78.60
2018-09-22T05:36:36.113Z,78.70
2018-09-22T05:39:11.121Z,78.80
2018-09-22T05:44:11.709Z,78.80
2018-09-22T05:46:43.016Z,78.90
2018-09-22T05:49:12.519Z,78.90
2018-09-22T05:51:45.110Z,78.80
2018-09-22T05:54:15.515Z,78.80
2018-09-22T05:56:45.628Z,79.00
2018-09-22T05:59:16.391Z,79.20
2018-09-22T06:04:17.088Z,79.00
2018-09-22T06:09:16.438Z,79.20
2018-09-22T06:11:45.906Z,79.30
2018-09-22T06:21:49.885Z,79.20
2018-09-22T06:24:21.990Z,79.50
2018-09-22T06:26:52.738Z,79.30
2018-09-22T06:31:51.761Z,79.20
2018-09-22T06:34:22.048Z,79.10
2018-09-22T06:44:20.059Z,79.20
2018-09-22T06:46:49.516Z,79.00
2018-09-22T06:49:21.366Z,78.70
2018-09-22T06:51:57.222Z,78.70
2018-09-22T06:54:26.794Z,78.80
2018-09-22T06:56:56.998Z,79.00
2018-09-22T06:59:26.545Z,78.80
2018-09-22T07:02:00.763Z,78.70
2018-09-22T07:04:30.854Z,78.50
2018-09-22T07:07:01.255Z,78.50
2018-09-22T07:09:30.729Z,78.50
2018-09-22T07:12:00.557Z,78.30
2018-09-22T07:14:30.545Z,78.40
2018-09-22T07:17:01.253Z,78.30
2018-09-22T07:19:31.843Z,78.40
2018-09-22T07:22:06.495Z,78.50
2018-09-22T07:24:36.626Z,78.30
2018-09-22T07:27:07.854Z,77.80
2018-09-22T07:29:37.500Z,77.80
2018-09-22T07:32:08.503Z,77.60
2018-09-22T07:34:40.430Z,77.40
2018-09-22T07:42:09.713Z,76.70
2018-09-22T07:47:09.641Z,76.00
2018-09-22T07:49:40.305Z,75.40
2018-09-22T07:52:10.448Z,75.30
2018-09-22T07:55:01.679Z,74.20
2018-09-22T08:05:35.160Z,71.60
2018-09-22T08:08:09.421Z,71.70
2018-09-22T08:13:09.268Z,70.50
2018-09-22T08:15:39.959Z,69.30
2018-09-22T08:18:11.494Z,69.20
2018-09-22T08:23:10.813Z,68.70
2018-09-22T08:28:14.560Z,67.40
2018-09-22T08:35:43.380Z,66.90
2018-09-22T08:45:41.971Z,67.70
2018-09-22T08:48:12.793Z,67.50
2018-09-22T08:53:13.012Z,68.10
2018-09-22T08:55:42.572Z,67.50
2018-09-22T08:58:12.997Z,68.40
2018-09-22T09:00:47.621Z,68.30
2018-09-22T09:08:19.192Z,68.20
2018-09-22T09:10:48.960Z,67.80
2018-09-22T09:15:53.611Z,67.70
2018-09-22T09:18:30.227Z,67.70
2018-09-22T09:21:00.301Z,68.70
2018-09-22T09:25:58.925Z,67.60
2018-09-22T09:28:29.483Z,68.00
2018-09-22T09:31:36.123Z,67.40
2018-09-22T09:39:50.727Z,65.80
2018-09-22T09:42:22.256Z,65.20
2018-09-22T09:49:52.909Z,64.40
2018-09-22T09:52:22.371Z,65.20
2018-09-22T09:57:21.594Z,65.90
2018-09-22T10:07:20.280Z,64.10
2018-09-22T10:09:50.232Z,64.30
2018-09-22T10:12:19.774Z,64.00
2018-09-22T10:14:50.280Z,64.40
2018-09-22T10:22:19.890Z,63.40
2018-09-22T10:27:19.043Z,63.20
2018-09-22T10:29:48.527Z,63.10
2018-09-22T10:34:47.413Z,61.90
2018-09-22T10:37:17.987Z,61.30
2018-09-22T10:39:47.890Z,61.20
2018-09-22T10:42:17.641Z,61.60
2018-09-22T10:44:47.096Z,61.40
2018-09-22T10:47:17.798Z,61.00
2018-09-22T10:49:47.286Z,60.70
2018-09-22T10:52:16.944Z,60.60
2018-09-22T10:54:47.757Z,59.90
2018-09-22T10:57:17.639Z,60.00
2018-09-22T10:59:48.592Z,59.50
2018-09-22T11:04:50.252Z,59.60
2018-09-22T11:07:20.757Z,59.80
2018-09-22T11:09:50.846Z,59.80
2018-09-22T11:14:51.616Z,60.90
2018-09-22T11:17:23.023Z,60.00
2018-09-22T11:19:53.225Z,59.40
2018-09-22T11:22:23.591Z,59.80
2018-09-22T11:27:24.104Z,59.50
2018-09-22T11:37:31.478Z,60.70
2018-09-22T11:42:37.569Z,60.80
2018-09-22T11:45:10.390Z,59.70
2018-09-22T11:47:41.022Z,59.80
2018-09-22T11:57:43.066Z,61.00
2018-09-22T12:00:13.957Z,66.80
2018-09-22T12:05:13.805Z,69.80
2018-09-22T12:07:43.918Z,67.70
2018-09-22T12:15:14.625Z,66.40
2018-09-22T12:17:44.635Z,67.40
2018-09-22T12:20:18.522Z,65.40
2018-09-22T12:22:48.614Z,66.80
2018-09-22T12:25:19.806Z,65.20
2018-09-22T12:27:52.680Z,64.80
2018-09-22T12:35:24.928Z,69.20
2018-09-22T12:40:24.449Z,71.50
2018-09-22T12:45:25.364Z,71.00
2018-09-22T12:47:58.379Z,71.50
2018-09-22T12:50:30.583Z,71.60
2018-09-22T12:53:02.049Z,71.60
2018-09-22T12:55:31.983Z,71.90
2018-09-22T13:15:36.991Z,66.40
2018-09-22T13:23:09.185Z,65.00
2018-09-22T13:33:09.283Z,64.00
2018-09-22T13:43:18.917Z,59.00
2018-09-22T13:48:23.011Z,56.30
2018-09-22T13:50:56.751Z,58.40
2018-09-22T13:55:57.666Z,61.90
2018-09-22T14:01:02.572Z,64.00
2018-09-22T14:08:38.575Z,70.90
2018-09-22T14:21:25.946Z,81.70
2018-09-22T14:24:04.289Z,82.80
2018-09-22T14:36:41.287Z,88.30
2018-09-22T14:44:18.615Z,90.00
2018-09-22T14:49:22.753Z,90.10
2018-09-22T14:54:21.326Z,89.90
2018-09-22T14:59:25.988Z,90.10
2018-09-22T15:01:58.252Z,89.70
2018-09-22T15:04:30.457Z,89.00
2018-09-22T15:09:34.189Z,89.50
2018-09-22T15:12:11.450Z,90.10
2018-09-22T15:17:22.439Z,90.50
2018-09-22T15:19:56.688Z,90.00
2018-09-22T15:24:55.654Z,89.60
2018-09-22T15:27:30.607Z,90.20
2018-09-22T15:30:04.248Z,90.40
2018-09-22T15:40:12.184Z,90.30
2018-09-22T15:45:12.677Z,90.60
2018-09-22T15:47:44.358Z,90.00
2018-09-22T15:50:13.858Z,90.40
2018-09-22T15:52:44.567Z,90.80
2018-09-22T15:55:15.546Z,90.50
2018-09-22T16:05:13.111Z,90.70
2018-09-22T16:07:43.408Z,90.60
2018-09-22T16:10:14.219Z,90.60
2018-09-22T16:15:12.612Z,90.70
2018-09-22T16:17:42.954Z,90.20
2018-09-22T16:20:13.353Z,90.40
2018-09-22T16:22:43.787Z,90.60
2018-09-22T16:30:12.046Z,90.40
2018-09-22T16:37:40.621Z,90.70
2018-09-22T16:40:11.066Z,90.60
2018-09-22T16:42:41.082Z,91.20
2018-09-22T16:45:11.357Z,91.40
2018-09-22T16:47:40.884Z,92.00
2018-09-22T16:50:11.172Z,92.30
2018-09-22T16:55:11.369Z,92.50
2018-09-22T17:02:43.281Z,92.10
2018-09-22T17:05:15.745Z,92.70
2018-09-22T17:07:45.842Z,93.30
2018-09-22T17:10:16.998Z,93.20
2018-09-22T17:20:16.583Z,93.60
2018-09-22T17:22:46.646Z,94.00
2018-09-22T17:25:16.270Z,94.20
2018-09-22T17:27:46.616Z,94.40
2018-09-22T17:30:18.178Z,94.20
2018-09-22T17:32:48.336Z,94.20
2018-09-22T17:37:48.603Z,94.20
2018-09-22T17:40:18.234Z,94.60
2018-09-22T17:42:47.741Z,94.70
2018-09-22T17:45:18.303Z,95.00
2018-09-22T17:50:21.633Z,95.30
2018-09-22T17:52:52.600Z,96.00
2018-09-22T17:57:55.932Z,96.50
2018-09-22T18:02:59.146Z,96.80
2018-09-22T18:08:05.106Z,96.80
2018-09-22T18:10:35.720Z,96.40
2018-09-22T18:13:05.718Z,96.20
2018-09-22T18:15:38.148Z,96.30
2018-09-22T18:18:16.394Z,96.40
2018-09-22T18:20:46.939Z,96.40
2018-09-22T18:23:18.194Z,96.40
2018-09-22T18:25:51.192Z,96.50
2018-09-22T18:28:21.532Z,96.80
2018-09-22T18:33:25.418Z,97.20
2018-09-22T18:35:55.423Z,97.20
2018-09-22T18:40:56.859Z,97.10
2018-09-22T18:45:56.610Z,97.80
2018-09-22T18:48:26.931Z,97.90
2018-09-22T18:50:57.058Z,97.90
2018-09-22T18:53:38.117Z,98.00
2018-09-22T18:56:17.303Z,98.10
2018-09-22T18:59:03.408Z,98.00
2018-09-22T19:06:37.537Z,98.30
2018-09-22T19:09:09.783Z,98.40
2018-09-22T19:11:39.695Z,98.30
2018-09-22T19:14:17.653Z,98.40
2018-09-22T19:17:27.174Z,98.50
2018-09-22T19:20:03.871Z,98.60
2018-09-22T19:22:39.106Z,98.90
2018-09-22T19:33:14.862Z,99.40
2018-09-22T19:35:51.555Z,99.40
2018-09-22T19:38:34.294Z,99.40
2018-09-22T19:44:47.798Z,99.60
2018-09-22T19:50:03.037Z,99.20
2018-09-22T19:52:51.939Z,99.30
2018-09-22T19:57:52.420Z,99.10
2018-09-22T20:00:21.982Z,99.30
2018-09-22T20:02:52.052Z,99.20
2018-09-22T20:05:23.299Z,99.20
2018-09-22T20:10:26.585Z,99.30
2018-09-22T20:12:57.041Z,99.50
2018-09-22T20:17:57.227Z,99.60
2018-09-22T20:20:29.548Z,99.80
2018-09-22T20:28:00.578Z,99.90
2018-09-22T20:35:34.703Z,99.90
2018-09-22T20:43:03.970Z,99.90
2018-09-22T20:45:34.085Z,99.90
2018-09-22T20:50:35.167Z,99.90
2018-09-22T20:55:34.976Z,99.90
2018-09-22T21:00:35.164Z,99.90
2018-09-22T21:03:05.462Z,99.90
2018-09-22T21:08:25.541Z,99.90
2018-09-22T21:14:29.358Z,99.90
2018-09-22T21:17:02.599Z,99.90
2018-09-22T21:25:05.164Z,99.90
2018-09-22T21:27:35.102Z,99.90
2018-09-22T21:30:07.046Z,99.90
2018-09-22T21:35:09.071Z,99.90
2018-09-22T21:37:40.446Z,99.90
2018-09-22T21:40:10.183Z,99.90
2018-09-22T21:42:57.106Z,99.90
2018-09-22T21:45:59.360Z,99.90
2018-09-22T21:48:30.460Z,99.90
2018-09-22T21:51:00.044Z,99.90
2018-09-22T21:53:30.481Z,99.90
2018-09-22T21:56:00.939Z,99.90
2018-09-22T21:58:30.989Z,99.90
2018-09-22T22:03:32.492Z,99.90
2018-09-22T22:06:02.054Z,99.90
2018-09-22T22:08:31.860Z,99.90
2018-09-22T22:11:02.971Z,99.90
2018-09-22T22:16:02.400Z,99.90
2018-09-22T22:18:32.347Z,99.90
2018-09-22T22:21:04.343Z,99.90
2018-09-22T22:23:34.135Z,99.90
2018-09-22T22:26:03.652Z,99.90
2018-09-22T22:31:03.502Z,99.90
2018-09-22T22:33:33.596Z,99.90
2018-09-22T22:36:06.918Z,99.90
2018-09-22T22:38:37.878Z,99.90
2018-09-22T22:41:12.408Z,99.90
2018-09-22T22:43:43.777Z,99.90
2018-09-22T22:46:15.427Z,99.90
2018-09-22T22:48:45.785Z,99.90
2018-09-22T22:53:48.412Z,99.90
2018-09-22T22:56:18.562Z,99.90
2018-09-22T22:58:48.678Z,99.90
2018-09-22T23:01:19.766Z,99.90
2018-09-22T23:06:19.555Z,99.90
2018-09-22T23:08:50.580Z,99.90
2018-09-22T23:18:54.834Z,99.90
2018-09-22T23:21:25.378Z,99.90
2018-09-22T23:23:54.997Z,99.90
2018-09-22T23:26:26.872Z,99.90
2018-09-22T23:31:27.268Z,99.90
2018-09-22T23:33:58.378Z,99.90
2018-09-22T23:36:29.535Z,99.90
2018-09-22T23:41:29.956Z,99.90
2018-09-22T23:44:00.025Z,99.90
2018-09-22T23:49:02.595Z,99.90
2018-09-22T23:51:32.341Z,99.90
2018-09-22T23:54:02.454Z,99.90
2018-09-22T23:56:32.664Z,99.90
2018-09-22T23:59:02.230Z,99.90
